createdAt,value
2022-10-01T00:00:56.585Z,6.88
2022-10-01T00:04:01.490Z,6.90
2022-10-01T00:07:10.774Z,6.72
2022-10-01T00:10:21.105Z,6.35
2022-10-01T00:13:25.764Z,6.07
2022-10-01T00:16:31.686Z,6.38
2022-10-01T00:19:37.008Z,6.25
2022-10-01T00:22:41.863Z,6.32
2022-10-01T00:25:46.283Z,5.30
2022-10-01T00:32:00.377Z,5.68
2022-10-01T00:35:09.492Z,5.43
2022-10-01T00:38:15.285Z,5.75
2022-10-01T00:41:20.071Z,6.03
2022-10-01T00:44:36.655Z,4.63
2022-10-01T00:48:07.571Z,5.63
2022-10-01T00:51:13.754Z,5.32
2022-10-01T00:54:34.875Z,5.00
2022-10-01T00:57:51.120Z,4.85
2022-10-01T01:00:57.076Z,5.10
2022-10-01T01:04:01.663Z,4.57
2022-10-01T01:07:07.250Z,4.30
2022-10-01T01:10:16.277Z,5.03
2022-10-01T01:13:57.855Z,4.68
2022-10-01T01:17:12.586Z,4.03
2022-10-01T01:21:03.848Z,4.72
2022-10-01T01:24:40.774Z,4.10
2022-10-01T01:27:53.511Z,3.90
2022-10-01T01:31:07.561Z,4.28
2022-10-01T01:34:23.503Z,3.90
2022-10-01T01:37:34.797Z,3.60
2022-10-01T01:40:42.182Z,3.60
2022-10-01T01:43:51.410Z,3.80
2022-10-01T01:46:58.232Z,3.65
2022-10-01T01:50:03.719Z,4.00
2022-10-01T01:53:08.785Z,3.85
2022-10-01T01:56:14.193Z,3.35
2022-10-01T01:59:19.599Z,4.18
2022-10-01T02:02:29.934Z,3.33
2022-10-01T02:05:48.340Z,4.00
2022-10-01T02:09:11.541Z,3.75
2022-10-01T02:12:19.725Z,3.60
2022-10-01T02:16:18.921Z,3.90
2022-10-01T02:20:10.097Z,3.70
2022-10-01T02:23:25.509Z,4.22
2022-10-01T02:26:32.138Z,3.70
2022-10-01T02:29:39.537Z,3.50
2022-10-01T02:32:49.397Z,3.88
2022-10-01T02:35:55.146Z,3.95
2022-10-01T02:39:01.221Z,3.88
2022-10-01T02:42:08.513Z,3.83
2022-10-01T02:45:17.064Z,3.63
2022-10-01T02:48:21.971Z,4.15
2022-10-01T02:51:46.390Z,4.00
2022-10-01T02:55:17.838Z,3.97
2022-10-01T02:58:22.794Z,3.47
2022-10-01T03:01:27.460Z,4.00
2022-10-01T03:04:32.454Z,3.97
2022-10-01T03:07:38.033Z,4.28
2022-10-01T03:10:46.587Z,3.88
2022-10-01T03:13:51.389Z,4.70
2022-10-01T03:17:01.448Z,5.32
2022-10-01T03:20:10.206Z,5.45
2022-10-01T03:23:14.514Z,5.68
2022-10-01T03:26:18.890Z,5.45
2022-10-01T03:29:26.875Z,6.53
2022-10-01T03:32:31.723Z,6.68
2022-10-01T03:35:36.145Z,7.18
2022-10-01T03:38:40.769Z,7.82
2022-10-01T03:41:45.482Z,7.68
2022-10-01T03:44:49.904Z,9.68
2022-10-01T03:47:54.954Z,8.82
2022-10-01T03:51:00.112Z,8.65
2022-10-01T03:54:06.522Z,9.52
2022-10-01T03:57:10.766Z,9.60
2022-10-01T04:03:19.560Z,11.32
2022-10-01T04:06:24.006Z,10.88
2022-10-01T04:09:28.265Z,11.55
2022-10-01T04:12:32.259Z,11.98
2022-10-01T04:15:40.222Z,11.40
2022-10-01T04:18:44.554Z,12.05
2022-10-01T04:21:51.839Z,11.98
2022-10-01T04:24:56.182Z,11.10
2022-10-01T04:31:25.586Z,11.43
2022-10-01T04:34:48.949Z,12.82
2022-10-01T04:38:03.417Z,12.57
2022-10-01T04:41:08.855Z,12.43
2022-10-01T04:44:13.494Z,13.43
2022-10-01T04:47:17.704Z,12.13
2022-10-01T04:50:25.245Z,13.10
2022-10-01T04:53:30.057Z,12.63
2022-10-01T04:56:34.331Z,13.15
2022-10-01T04:59:42.357Z,12.93
2022-10-01T05:02:49.204Z,12.10
2022-10-01T05:05:53.555Z,12.68
2022-10-01T05:08:57.874Z,13.48
2022-10-01T05:12:02.543Z,13.05
2022-10-01T05:15:08.327Z,12.75
2022-10-01T05:18:12.888Z,14.25
2022-10-01T05:24:21.752Z,13.68
2022-10-01T05:27:31.087Z,13.38
2022-10-01T05:30:35.549Z,14.40
2022-10-01T05:33:41.086Z,13.23
2022-10-01T05:36:47.532Z,14.02
2022-10-01T05:39:53.055Z,15.52
2022-10-01T05:42:59.737Z,14.88
2022-10-01T05:46:07.924Z,15.40
2022-10-01T05:49:12.314Z,15.00
2022-10-01T05:52:17.029Z,15.27
2022-10-01T05:55:22.999Z,14.68
2022-10-01T05:58:27.700Z,14.68
2022-10-01T06:01:32.802Z,15.68
2022-10-01T06:04:41.180Z,16.13
2022-10-01T06:07:46.013Z,14.80
2022-10-01T06:13:55.124Z,15.50
2022-10-01T06:17:02.095Z,15.75
2022-10-01T06:20:06.991Z,15.98
2022-10-01T06:23:13.365Z,16.50
2022-10-01T06:26:23.888Z,19.20
2022-10-01T06:29:28.321Z,17.25
2022-10-01T06:32:35.026Z,15.65
2022-10-01T06:35:52.364Z,16.60
2022-10-01T06:39:10.662Z,17.13
2022-10-01T06:42:19.987Z,17.67
2022-10-01T06:45:35.377Z,22.58
2022-10-01T06:48:44.435Z,22.63
2022-10-01T06:52:07.664Z,20.00
2022-10-01T06:55:16.616Z,24.30
2022-10-01T06:58:27.556Z,18.90
2022-10-01T07:01:37.017Z,19.98
2022-10-01T07:04:41.856Z,21.40
2022-10-01T07:08:01.660Z,20.38
2022-10-01T07:11:22.866Z,18.58
2022-10-01T07:14:29.336Z,20.23
2022-10-01T07:17:34.458Z,16.70
2022-10-01T07:20:42.737Z,16.52
2022-10-01T07:23:48.532Z,17.73
2022-10-01T07:26:55.590Z,21.30
2022-10-01T07:30:00.110Z,19.65
2022-10-01T07:33:04.936Z,18.13
2022-10-01T07:36:13.625Z,15.30
2022-10-01T07:39:18.084Z,15.38
2022-10-01T07:42:22.428Z,15.75
2022-10-01T07:45:28.075Z,16.30
2022-10-01T07:48:33.114Z,14.88
2022-10-01T07:51:37.543Z,17.60
2022-10-01T07:54:41.829Z,16.20
2022-10-01T07:57:53.102Z,16.20
2022-10-01T08:01:04.702Z,15.25
2022-10-01T08:04:28.627Z,15.93
2022-10-01T08:07:36.396Z,14.33
2022-10-01T08:10:41.608Z,14.95
2022-10-01T08:13:49.408Z,14.68
2022-10-01T08:16:57.841Z,12.63
2022-10-01T08:20:06.444Z,13.23
2022-10-01T08:23:17.707Z,12.60
2022-10-01T08:26:34.734Z,12.40
2022-10-01T08:29:48.890Z,12.15
2022-10-01T08:32:59.539Z,12.68
2022-10-01T08:36:08.550Z,11.27
2022-10-01T08:39:14.863Z,12.43
2022-10-01T08:43:01.068Z,11.95
2022-10-01T08:46:50.949Z,11.73
2022-10-01T08:50:26.743Z,10.60
2022-10-01T08:53:55.470Z,10.65
2022-10-01T08:57:13.742Z,11.32
2022-10-01T09:00:38.126Z,12.05
2022-10-01T09:03:42.697Z,11.30
2022-10-01T09:06:59.821Z,13.68
2022-10-01T09:10:25.658Z,12.80
2022-10-01T09:13:58.273Z,14.52
2022-10-01T09:17:15.412Z,14.88
2022-10-01T09:20:39.670Z,14.25
2022-10-01T09:24:15.212Z,15.43
2022-10-01T09:27:26.799Z,18.75
2022-10-01T09:30:53.515Z,17.13
2022-10-01T09:34:28.079Z,17.80
2022-10-01T09:41:17.039Z,20.38
2022-10-01T09:45:03.485Z,21.48
2022-10-01T09:49:10.450Z,23.15
2022-10-01T09:52:35.717Z,24.80
2022-10-01T09:55:45.339Z,25.35
2022-10-01T10:24:38.430Z,26.83
2022-10-01T10:27:58.475Z,29.13
2022-10-01T10:31:11.604Z,27.80
2022-10-01T10:34:38.677Z,26.17
2022-10-01T10:37:52.489Z,24.88
2022-10-01T10:41:30.675Z,22.08
2022-10-01T10:44:39.914Z,21.42
2022-10-01T10:47:54.279Z,20.75
2022-10-01T10:51:02.352Z,17.20
2022-10-01T10:54:21.957Z,15.07
2022-10-01T10:57:43.963Z,14.00
2022-10-01T11:00:50.833Z,13.05
2022-10-01T11:03:59.910Z,12.10
2022-10-01T11:07:04.873Z,11.32
2022-10-01T11:10:35.686Z,11.05
2022-10-01T11:14:22.740Z,9.80
2022-10-01T11:17:46.383Z,8.48
2022-10-01T11:21:27.319Z,7.95
2022-10-01T11:24:46.164Z,7.97
2022-10-01T11:28:37.525Z,6.95
2022-10-01T11:32:19.802Z,6.43
2022-10-01T11:36:00.646Z,5.10
2022-10-01T11:39:18.083Z,4.32
2022-10-01T11:42:34.782Z,3.08
2022-10-01T11:45:52.526Z,1.90
2022-10-01T11:49:25.307Z,3.60
2022-10-01T11:53:15.868Z,2.90
2022-10-01T11:57:08.297Z,2.08
2022-10-01T12:00:17.297Z,1.70
2022-10-01T12:03:29.644Z,2.60
2022-10-01T12:06:55.738Z,2.42
2022-10-01T12:10:38.803Z,10.52
2022-10-01T12:14:40.744Z,3.67
2022-10-01T12:18:32.132Z,2.85
2022-10-01T12:22:00.681Z,2.20
2022-10-01T12:25:13.786Z,2.95
2022-10-01T12:28:39.120Z,2.92
2022-10-01T12:32:54.667Z,1.83
2022-10-01T12:36:16.454Z,2.38
2022-10-01T12:40:09.881Z,2.22
2022-10-01T12:44:04.161Z,1.98
2022-10-01T12:47:21.802Z,2.40
2022-10-01T12:51:02.260Z,2.35
2022-10-01T12:54:50.797Z,2.08
2022-10-01T12:58:49.556Z,1.42
2022-10-01T13:02:19.656Z,1.60
2022-10-01T13:06:05.481Z,1.27
2022-10-01T13:09:49.159Z,1.92
2022-10-01T13:14:13.714Z,1.27
2022-10-01T13:18:05.239Z,1.08
2022-10-01T13:22:02.157Z,0.57
2022-10-01T13:25:53.712Z,0.63
2022-10-01T13:29:41.505Z,0.70
2022-10-01T13:33:01.137Z,1.23
2022-10-01T13:37:18.669Z,1.17
2022-10-01T13:41:05.680Z,0.70
2022-10-01T13:45:05.102Z,0.73
2022-10-01T13:48:54.488Z,1.23
2022-10-01T13:52:14.318Z,0.80
2022-10-01T13:55:33.915Z,1.50
2022-10-01T13:58:56.670Z,0.90
2022-10-01T14:02:41.431Z,1.63
2022-10-01T14:13:46.128Z,0.93
2022-10-01T14:17:30.632Z,0.75
2022-10-01T14:26:23.747Z,0.90
2022-10-01T14:35:27.669Z,1.65
2022-10-01T14:47:45.444Z,3.78
2022-10-01T14:57:26.557Z,37.97
2022-10-01T15:25:05.440Z,2.40
2022-10-01T15:28:49.418Z,1.42
2022-10-01T15:32:14.223Z,1.83
2022-10-01T15:35:46.100Z,1.42
2022-10-01T15:38:57.117Z,2.28
2022-10-01T15:42:40.908Z,4.07
2022-10-01T15:46:06.459Z,2.63
2022-10-01T15:49:30.954Z,2.33
2022-10-01T15:53:33.821Z,2.35
2022-10-01T16:05:15.820Z,1.80
2022-10-01T16:12:38.977Z,2.80
2022-10-01T16:16:18.584Z,1.85
2022-10-01T16:29:40.778Z,2.20
2022-10-01T16:32:57.940Z,1.85
2022-10-01T16:45:08.788Z,2.42
2022-10-01T16:48:52.349Z,2.33
2022-10-01T16:52:10.508Z,2.08
2022-10-01T16:55:53.719Z,1.95
2022-10-01T17:21:25.594Z,2.35
2022-10-01T17:25:08.557Z,3.47
2022-10-01T17:31:48.657Z,2.92
2022-10-01T17:35:09.974Z,2.70
2022-10-01T17:47:11.936Z,2.60
2022-10-01T17:50:17.849Z,2.40
2022-10-01T17:53:27.399Z,2.70
2022-10-01T17:56:34.628Z,5.57
2022-10-01T17:59:39.355Z,4.07
2022-10-01T18:02:46.283Z,3.63
2022-10-01T18:05:51.282Z,3.95
2022-10-01T18:09:03.843Z,3.30
2022-10-01T18:12:25.214Z,4.13
2022-10-01T18:16:19.051Z,3.13
2022-10-01T18:19:53.285Z,4.85
2022-10-01T18:23:47.398Z,3.33
2022-10-01T18:31:54.566Z,5.68
2022-10-01T18:36:24.655Z,3.88
2022-10-01T18:40:30.728Z,4.68
2022-10-01T18:43:51.779Z,5.22
2022-10-01T18:47:21.159Z,4.65
2022-10-01T18:51:29.648Z,6.15
2022-10-01T18:55:05.110Z,10.48
2022-10-01T18:58:58.320Z,5.65
2022-10-01T19:02:57.167Z,3.97
2022-10-01T19:10:40.074Z,3.65
2022-10-01T19:15:18.603Z,2.55
2022-10-01T19:19:05.698Z,3.42
2022-10-01T19:22:50.801Z,4.60
2022-10-01T19:26:06.586Z,5.50
2022-10-01T19:29:41.523Z,3.25
2022-10-01T19:33:17.673Z,2.92
2022-10-01T19:37:13.618Z,2.83
2022-10-01T19:40:46.176Z,3.50
2022-10-01T19:44:02.175Z,3.22
2022-10-01T19:47:31.482Z,2.67
2022-10-01T19:50:43.863Z,3.30
2022-10-01T19:54:00.230Z,4.93
2022-10-01T19:57:48.313Z,4.38
2022-10-01T20:00:57.858Z,3.70
2022-10-01T20:52:10.594Z,7.45
